Itasca, Illinois
Current Conditions -  °F | °C
As of 5:51 PM on Friday 28 Nov 2014 (Local Time) from KORD Reporting Station
Overcast Overcast  
Wind Chill: 22°   Ceiling: 2000
Heat Index: 32°   Visibility: 9mi
Dew Point: 25°   Wind: 14mph
Humidity: 75%   Direction: 160°SSE
Pressure: 29.98"   Gusts: NA
Location:  41.97°N, 88.02°W
Report Text: KORD 282351Z 16012KT 9SM OVC020 00/M04 A2998 RMK AO2 SLP160 T00001039 10000 21028 55006
Loading
Personal Weather Stations






























Interactive Weather Map New forecast layout! Learn more

10-Day Weather Forecast

Advertisements
Track Severe Weather on mobile